createdAt,value
2018-09-19T00:00:45.679Z,12.73
2018-09-19T00:03:14.217Z,13.07
2018-09-19T00:05:42.724Z,13.43
2018-09-19T00:08:11.177Z,12.13
2018-09-19T00:10:39.698Z,14.63
2018-09-19T00:13:08.277Z,12.57
2018-09-19T00:15:36.775Z,12.97
2018-09-19T00:18:05.333Z,13.40
2018-09-19T00:20:33.803Z,15.70
2018-09-19T00:23:02.311Z,14.13
2018-09-19T00:25:30.842Z,14.70
2018-09-19T00:27:59.333Z,14.40
2018-09-19T00:30:27.841Z,14.60
2018-09-19T00:32:56.269Z,14.60
2018-09-19T00:35:24.819Z,15.67
2018-09-19T00:37:53.263Z,15.07
2018-09-19T00:40:21.803Z,13.93
2018-09-19T00:42:50.336Z,16.43
2018-09-19T00:45:18.825Z,14.63
2018-09-19T00:47:47.417Z,15.93
2018-09-19T00:50:15.861Z,15.83
2018-09-19T00:52:44.369Z,15.97
2018-09-19T00:55:12.891Z,16.40
2018-09-19T00:57:41.425Z,15.67
2018-09-19T01:00:10.961Z,17.57
2018-09-19T01:02:39.421Z,17.70
2018-09-19T01:05:08.223Z,18.30
2018-09-19T01:07:36.682Z,15.90
2018-09-19T01:10:05.489Z,15.63
2018-09-19T01:12:33.978Z,17.17
2018-09-19T01:15:02.468Z,17.43
2018-09-19T01:17:30.905Z,17.10
2018-09-19T01:19:59.476Z,16.00
2018-09-19T01:22:28.007Z,16.83
2018-09-19T01:24:56.589Z,16.50
2018-09-19T01:27:25.045Z,16.43
2018-09-19T01:29:53.577Z,18.32
2018-09-19T01:32:22.097Z,17.43
2018-09-19T01:34:50.727Z,16.63
2018-09-19T01:37:20.229Z,16.50
2018-09-19T01:39:48.720Z,16.83
2018-09-19T01:42:17.319Z,16.73
2018-09-19T01:44:45.841Z,16.47
2018-09-19T01:47:14.373Z,16.40
2018-09-19T01:49:42.941Z,15.87
2018-09-19T01:52:11.429Z,15.90
2018-09-19T01:54:39.882Z,15.80
2018-09-19T01:57:08.382Z,13.40
2018-09-19T01:59:36.838Z,13.23
2018-09-19T02:02:05.373Z,11.57
2018-09-19T02:04:33.934Z,12.13
2018-09-19T02:07:02.460Z,13.53
2018-09-19T02:09:30.961Z,14.70
2018-09-19T02:11:59.481Z,14.70
2018-09-19T02:14:28.028Z,16.23
2018-09-19T02:16:56.549Z,16.70
2018-09-19T02:19:24.990Z,15.07
2018-09-19T02:21:53.511Z,15.13
2018-09-19T02:24:21.973Z,15.60
2018-09-19T02:26:51.463Z,19.83
2018-09-19T02:29:19.964Z,16.90
2018-09-19T02:31:48.461Z,15.17
2018-09-19T02:34:16.963Z,16.03
2018-09-19T02:36:45.545Z,17.90
2018-09-19T02:39:14.084Z,16.60
2018-09-19T02:41:42.614Z,17.57
2018-09-19T02:44:11.076Z,15.90
2018-09-19T02:46:39.525Z,16.17
2018-09-19T02:49:07.997Z,13.17
2018-09-19T02:51:36.522Z,14.20
2018-09-19T02:54:05.076Z,13.90
2018-09-19T02:56:33.536Z,13.27
2018-09-19T02:59:02.058Z,13.43
2018-09-19T03:01:30.552Z,7.00
2018-09-19T03:03:59.130Z,5.93
2018-09-19T03:06:27.659Z,5.33
2018-09-19T03:08:56.189Z,5.27
2018-09-19T03:11:24.632Z,5.53
2018-09-19T03:13:53.145Z,6.00
2018-09-19T03:16:21.754Z,5.67
2018-09-19T03:18:50.285Z,5.10
2018-09-19T03:21:18.808Z,4.73
2018-09-19T03:23:47.233Z,4.80
2018-09-19T03:26:15.761Z,4.67
2018-09-19T03:28:44.249Z,6.77
2018-09-19T03:31:12.687Z,5.20
2018-09-19T03:33:41.199Z,5.43
2018-09-19T03:36:09.678Z,4.67
2018-09-19T03:38:38.121Z,5.10
2018-09-19T03:41:06.671Z,4.30
2018-09-19T03:43:35.261Z,4.03
2018-09-19T03:46:03.817Z,3.40
2018-09-19T03:48:32.293Z,6.47
2018-09-19T03:51:00.782Z,4.27
2018-09-19T03:53:29.227Z,4.43
2018-09-19T03:55:57.696Z,8.70
2018-09-19T03:58:26.224Z,4.20
2018-09-19T04:00:54.665Z,3.13
2018-09-19T04:03:23.207Z,5.10
2018-09-19T04:05:51.746Z,7.27
2018-09-19T04:08:20.219Z,3.83
2018-09-19T04:10:48.764Z,5.00
2018-09-19T04:13:17.306Z,4.20
2018-09-19T04:15:45.784Z,3.50
2018-09-19T04:18:14.285Z,3.63
2018-09-19T04:20:42.819Z,4.10
2018-09-19T04:23:11.297Z,6.63
2018-09-19T04:25:39.817Z,3.73
2018-09-19T04:28:08.277Z,3.73
2018-09-19T04:30:36.781Z,4.40
2018-09-19T04:33:05.254Z,12.37
2018-09-19T04:35:33.728Z,7.50
2018-09-19T04:38:02.201Z,6.03
2018-09-19T04:40:30.721Z,4.80
2018-09-19T04:42:59.173Z,4.60
2018-09-19T04:45:28.693Z,4.17
2018-09-19T04:47:57.142Z,3.90
2018-09-19T04:50:25.676Z,3.80
2018-09-19T04:52:54.124Z,3.90
2018-09-19T04:55:22.838Z,3.30
2018-09-19T04:57:51.278Z,3.03
2018-09-19T05:00:19.833Z,4.80
2018-09-19T05:02:48.491Z,5.27
2018-09-19T05:05:17.100Z,3.60
2018-09-19T05:07:45.749Z,5.47
2018-09-19T05:10:14.394Z,7.70
2018-09-19T05:12:42.893Z,4.43
2018-09-19T05:15:11.409Z,5.83
2018-09-19T05:17:39.846Z,6.23
2018-09-19T05:20:08.395Z,6.10
2018-09-19T05:22:36.973Z,3.60
2018-09-19T05:25:05.548Z,3.60
2018-09-19T05:27:34.114Z,3.80
2018-09-19T05:30:02.562Z,3.10
2018-09-19T05:32:31.075Z,3.73
2018-09-19T05:34:59.633Z,3.67
2018-09-19T05:37:29.174Z,4.63
2018-09-19T05:39:57.608Z,4.97
2018-09-19T05:42:26.107Z,5.40
2018-09-19T05:44:54.611Z,3.47
2018-09-19T05:47:23.174Z,5.03
2018-09-19T05:49:51.669Z,4.47
2018-09-19T05:52:24.362Z,13.40
2018-09-19T05:54:53.869Z,8.40
2018-09-19T05:57:22.881Z,5.87
2018-09-19T05:59:51.426Z,4.70
2018-09-19T06:02:19.925Z,5.43
2018-09-19T06:04:48.730Z,4.73
2018-09-19T06:07:17.153Z,5.27
2018-09-19T06:09:45.680Z,3.90
2018-09-19T06:12:14.115Z,5.60
2018-09-19T06:14:42.589Z,11.60
2018-09-19T06:17:11.121Z,4.77
2018-09-19T06:19:39.585Z,4.93
2018-09-19T06:22:08.186Z,5.03
2018-09-19T06:24:36.712Z,4.80
2018-09-19T06:27:05.258Z,4.60
2018-09-19T06:29:33.678Z,4.10
2018-09-19T06:32:02.221Z,4.40
2018-09-19T06:34:30.799Z,4.13
2018-09-19T06:36:59.297Z,6.70
2018-09-19T06:39:27.740Z,7.00
2018-09-19T06:41:56.365Z,7.83
2018-09-19T06:44:24.880Z,22.20
2018-09-19T06:46:53.469Z,13.80
2018-09-19T06:49:21.957Z,13.33
2018-09-19T06:51:50.510Z,11.60
2018-09-19T06:54:19.014Z,10.93
2018-09-19T06:56:47.545Z,20.47
2018-09-19T06:59:16.046Z,10.63
2018-09-19T07:01:44.565Z,9.30
2018-09-19T07:04:13.209Z,7.60
2018-09-19T07:06:41.775Z,5.40
2018-09-19T07:09:10.877Z,5.83
2018-09-19T07:11:39.575Z,5.80
2018-09-19T07:14:08.183Z,5.40
2018-09-19T07:16:36.722Z,4.90
2018-09-19T07:19:05.240Z,5.80
2018-09-19T07:21:33.778Z,5.97
2018-09-19T07:24:02.473Z,5.53
2018-09-19T07:26:30.909Z,5.50
2018-09-19T07:28:59.422Z,5.00
2018-09-19T07:31:27.884Z,4.80
2018-09-19T07:33:56.372Z,4.90
2018-09-19T07:36:25.003Z,7.03
2018-09-19T07:38:53.584Z,5.53
2018-09-19T07:41:22.144Z,4.63
2018-09-19T07:43:50.645Z,6.80
2018-09-19T07:46:19.214Z,6.13
2018-09-19T07:48:47.901Z,7.20
2018-09-19T07:51:16.366Z,5.77
2018-09-19T07:53:44.829Z,5.60
2018-09-19T07:56:13.353Z,5.07
2018-09-19T07:58:42.825Z,5.57
2018-09-19T08:01:11.449Z,5.40
2018-09-19T08:03:40.039Z,5.13
2018-09-19T08:06:08.564Z,4.73
2018-09-19T08:08:37.050Z,4.20
2018-09-19T08:11:05.574Z,7.23
2018-09-19T08:13:34.102Z,8.70
2018-09-19T08:16:02.594Z,5.63
2018-09-19T08:18:31.117Z,5.07
2018-09-19T08:20:59.585Z,4.90
2018-09-19T08:23:28.077Z,4.80
2018-09-19T08:25:56.581Z,4.17
2018-09-19T08:28:25.121Z,7.30
2018-09-19T08:30:53.999Z,5.10
2018-09-19T08:33:23.019Z,5.40
2018-09-19T08:35:52.049Z,7.53
2018-09-19T08:38:20.633Z,4.77
2018-09-19T08:40:56.765Z,4.30
2018-09-19T08:43:30.925Z,4.27
2018-09-19T08:46:06.338Z,4.77
2018-09-19T08:48:36.301Z,5.00
2018-09-19T08:51:05.200Z,6.00
2018-09-19T08:53:42.004Z,5.23
2018-09-19T08:56:11.097Z,10.80
2018-09-19T08:58:40.641Z,5.93
2018-09-19T09:01:09.248Z,6.03
2018-09-19T09:03:37.751Z,5.87
2018-09-19T09:06:06.557Z,8.70
2018-09-19T09:08:37.130Z,6.30
2018-09-19T09:11:05.914Z,8.73
2018-09-19T09:13:34.486Z,6.47
2018-09-19T09:16:04.029Z,5.13
2018-09-19T09:18:32.554Z,8.20
2018-09-19T09:21:01.016Z,6.27
2018-09-19T09:23:30.577Z,4.53
2018-09-19T09:26:00.186Z,5.77
2018-09-19T09:28:28.637Z,5.13
2018-09-19T09:30:57.180Z,4.50
2018-09-19T09:33:25.705Z,5.30
2018-09-19T09:35:54.257Z,8.03
2018-09-19T09:38:22.874Z,17.43
2018-09-19T09:40:56.990Z,5.10
2018-09-19T09:43:25.792Z,4.63
2018-09-19T09:45:54.326Z,4.77
2018-09-19T09:48:22.824Z,5.33
2018-09-19T09:50:51.302Z,6.00
2018-09-19T09:53:20.001Z,6.43
2018-09-19T09:56:01.682Z,5.70
2018-09-19T09:58:30.260Z,5.47
2018-09-19T10:00:58.765Z,9.70
2018-09-19T10:03:27.291Z,7.30
2018-09-19T10:05:55.826Z,5.40
2018-09-19T10:08:24.424Z,6.63
2018-09-19T10:10:52.985Z,5.27
2018-09-19T10:13:21.418Z,5.40
2018-09-19T10:15:49.934Z,5.80
2018-09-19T10:18:18.383Z,5.77
2018-09-19T10:20:46.916Z,7.23
2018-09-19T10:23:15.453Z,5.73
2018-09-19T10:25:43.921Z,6.60
2018-09-19T10:28:12.441Z,7.73
2018-09-19T10:30:40.888Z,5.80
2018-09-19T10:33:09.405Z,6.70
2018-09-19T10:35:37.896Z,6.40
2018-09-19T10:38:06.441Z,6.20
2018-09-19T10:40:34.921Z,6.87
2018-09-19T10:43:03.448Z,8.73
2018-09-19T10:45:31.878Z,6.33
2018-09-19T10:48:00.403Z,6.47
2018-09-19T10:50:28.876Z,5.90
2018-09-19T10:52:57.499Z,6.57
2018-09-19T10:55:26.063Z,11.03
2018-09-19T10:57:54.874Z,7.70
2018-09-19T11:00:23.731Z,6.63
2018-09-19T11:02:52.471Z,18.43
2018-09-19T11:05:21.032Z,5.47
2018-09-19T11:07:49.600Z,6.30
2018-09-19T11:10:18.133Z,5.43
2018-09-19T11:12:46.666Z,5.10
2018-09-19T11:15:15.090Z,6.20
2018-09-19T11:17:43.899Z,6.90
2018-09-19T11:20:12.405Z,8.10
2018-09-19T11:22:40.989Z,6.13
2018-09-19T11:25:09.505Z,5.83
2018-09-19T11:27:38.109Z,6.83
2018-09-19T11:30:07.284Z,6.30
2018-09-19T11:32:35.802Z,5.90
2018-09-19T11:35:04.445Z,6.27
2018-09-19T11:37:32.985Z,7.17
2018-09-19T11:40:02.167Z,6.23
2018-09-19T11:42:32.090Z,6.70
2018-09-19T11:45:00.745Z,6.33
2018-09-19T11:50:34.695Z,6.13
2018-09-19T12:17:28.369Z,6.70
2018-09-19T12:19:56.869Z,10.30
2018-09-19T12:22:25.314Z,12.60
2018-09-19T12:24:54.984Z,7.47
2018-09-19T12:27:24.590Z,5.40
2018-09-19T12:29:53.109Z,5.43
2018-09-19T12:32:21.622Z,5.30
2018-09-19T12:34:50.066Z,7.10
2018-09-19T12:37:18.613Z,5.43
2018-09-19T12:39:47.139Z,5.63
2018-09-19T12:42:15.658Z,6.90
2018-09-19T12:44:44.121Z,6.40
2018-09-19T12:47:12.705Z,5.43
2018-09-19T12:49:41.209Z,5.63
2018-09-19T12:52:09.669Z,5.50
2018-09-19T12:54:38.266Z,6.83
2018-09-19T12:57:07.025Z,5.80
2018-09-19T12:59:35.529Z,6.30
2018-09-19T13:02:04.030Z,5.80
2018-09-19T13:04:32.530Z,5.50
2018-09-19T13:07:01.049Z,7.50
2018-09-19T13:09:29.554Z,4.90
2018-09-19T13:11:58.016Z,5.47
2018-09-19T13:14:26.533Z,5.83
2018-09-19T13:16:54.972Z,5.40
2018-09-19T13:19:23.500Z,5.50
2018-09-19T13:21:52.145Z,5.60
2018-09-19T13:24:20.629Z,5.43
2018-09-19T13:26:49.163Z,9.87
2018-09-19T13:29:17.846Z,6.90
2018-09-19T13:31:46.305Z,7.40
2018-09-19T13:34:14.816Z,6.03
2018-09-19T13:36:43.505Z,5.07
2018-09-19T13:39:12.961Z,8.20
2018-09-19T13:41:41.755Z,5.93
2018-09-19T13:44:10.249Z,6.13
2018-09-19T13:46:38.690Z,6.00
2018-09-19T13:50:15.613Z,5.10
2018-09-19T13:52:44.066Z,5.17
2018-09-19T13:55:12.585Z,5.03
2018-09-19T13:57:41.062Z,5.57
2018-09-19T14:00:09.217Z,5.03
2018-09-19T14:02:37.789Z,7.80
2018-09-19T14:05:06.372Z,5.03
2018-09-19T14:07:34.844Z,5.50
2018-09-19T14:10:03.411Z,5.63
2018-09-19T14:12:31.948Z,8.03
2018-09-19T14:15:00.454Z,4.57
2018-09-19T14:17:29.015Z,7.77
2018-09-19T14:19:57.513Z,7.63
2018-09-19T14:22:26.081Z,6.37
2018-09-19T14:24:54.577Z,5.23
2018-09-19T14:27:23.158Z,5.80
2018-09-19T14:29:51.737Z,4.70
2018-09-19T14:32:20.185Z,4.90
2018-09-19T14:34:48.686Z,4.17
2018-09-19T14:37:17.139Z,4.83
2018-09-19T14:39:45.666Z,7.40
2018-09-19T14:42:14.141Z,4.70
2018-09-19T14:44:42.609Z,5.17
2018-09-19T14:47:11.165Z,8.50
2018-09-19T14:49:39.727Z,4.60
2018-09-19T14:52:08.268Z,5.27
2018-09-19T14:54:36.874Z,6.63
2018-09-19T14:57:05.517Z,4.07
2018-09-19T14:59:34.046Z,3.67
2018-09-19T15:02:02.565Z,3.97
2018-09-19T15:04:31.219Z,4.10
2018-09-19T15:06:59.747Z,4.60
2018-09-19T15:09:28.262Z,4.90
2018-09-19T15:11:56.875Z,4.70
2018-09-19T15:14:25.493Z,4.60
2018-09-19T15:16:53.953Z,4.83
2018-09-19T15:19:22.525Z,3.93
2018-09-19T15:21:51.114Z,4.03
2018-09-19T15:24:19.727Z,4.40
2018-09-19T15:26:48.241Z,4.20
2018-09-19T15:29:16.807Z,4.13
2018-09-19T15:31:45.636Z,4.43
2018-09-19T15:34:14.189Z,3.93
2018-09-19T15:36:42.697Z,5.37
2018-09-19T15:39:11.356Z,3.60
2018-09-19T15:41:39.881Z,8.83
2018-09-19T15:44:08.605Z,7.10
2018-09-19T15:46:37.525Z,6.80
2018-09-19T15:49:05.981Z,5.93
2018-09-19T15:51:34.456Z,5.30
2018-09-19T15:54:03.049Z,5.70
2018-09-19T15:56:31.574Z,7.50
2018-09-19T15:59:00.146Z,8.63
2018-09-19T16:01:28.729Z,6.27
2018-09-19T16:03:57.281Z,7.63
2018-09-19T16:06:25.788Z,5.77
2018-09-19T16:08:54.331Z,4.07
2018-09-19T16:11:22.857Z,4.57
2018-09-19T16:13:51.417Z,5.00
2018-09-19T16:16:20.226Z,5.70
2018-09-19T16:18:48.890Z,5.73
2018-09-19T16:21:17.489Z,5.60
2018-09-19T16:23:45.950Z,7.70
2018-09-19T16:26:15.481Z,4.83
2018-09-19T16:28:44.223Z,8.17
2018-09-19T16:31:12.953Z,5.00
2018-09-19T16:33:41.393Z,5.20
2018-09-19T16:36:09.882Z,8.90
2018-09-19T16:38:38.405Z,9.53
2018-09-19T16:41:06.998Z,5.90
2018-09-19T16:43:35.688Z,5.80
2018-09-19T16:46:04.250Z,5.70
2018-09-19T16:48:32.713Z,10.60
2018-09-19T16:51:01.232Z,8.57
2018-09-19T16:53:29.767Z,7.90
2018-09-19T16:55:58.263Z,4.60
2018-09-19T16:58:26.765Z,4.63
2018-09-19T17:00:55.201Z,4.60
2018-09-19T17:03:23.708Z,5.17
2018-09-19T17:05:52.309Z,5.83
2018-09-19T17:08:20.958Z,6.80
2018-09-19T17:10:49.429Z,8.20
2018-09-19T17:13:18.146Z,6.33
2018-09-19T17:15:46.765Z,10.40
2018-09-19T17:18:15.230Z,5.80
2018-09-19T17:20:43.653Z,7.03
2018-09-19T17:23:12.186Z,6.37
2018-09-19T17:25:40.629Z,10.57
2018-09-19T17:28:09.105Z,8.30
2018-09-19T17:30:37.643Z,5.50
2018-09-19T17:33:06.231Z,7.07
2018-09-19T17:35:34.794Z,5.97
2018-09-19T17:38:03.289Z,5.10
2018-09-19T17:40:31.927Z,6.43
2018-09-19T17:43:00.433Z,6.73
2018-09-19T17:45:28.993Z,11.93
2018-09-19T17:47:57.686Z,8.00
2018-09-19T17:50:26.226Z,6.73
2018-09-19T17:52:54.814Z,10.23
2018-09-19T17:55:23.359Z,6.37
2018-09-19T17:57:51.905Z,12.23
2018-09-19T18:00:20.481Z,8.13
2018-09-19T18:02:49.004Z,6.93
2018-09-19T18:05:17.569Z,5.43
2018-09-19T18:07:46.165Z,5.43
2018-09-19T18:10:14.613Z,6.53
2018-09-19T18:12:43.136Z,11.00
2018-09-19T18:15:11.666Z,6.33
2018-09-19T18:17:40.241Z,5.50
2018-09-19T18:20:08.855Z,6.43
2018-09-19T18:22:37.409Z,5.37
2018-09-19T18:25:05.933Z,5.40
2018-09-19T18:27:34.451Z,6.80
2018-09-19T18:30:03.051Z,5.33
2018-09-19T18:32:31.649Z,6.17
2018-09-19T18:35:00.165Z,6.73
2018-09-19T18:37:28.670Z,5.83
2018-09-19T18:39:57.131Z,11.50
2018-09-19T18:42:25.637Z,7.70
2018-09-19T18:44:54.229Z,7.57
2018-09-19T18:47:22.773Z,6.70
2018-09-19T18:49:51.463Z,8.63
2018-09-19T18:52:19.955Z,8.30
2018-09-19T18:54:48.473Z,10.33
2018-09-19T18:57:17.055Z,6.53
2018-09-19T18:59:45.653Z,11.07
2018-09-19T19:02:14.205Z,6.60
2018-09-19T19:04:42.692Z,6.80
2018-09-19T19:07:11.229Z,7.87
2018-09-19T19:09:39.773Z,8.70
2018-09-19T19:12:08.302Z,7.00
2018-09-19T19:14:37.850Z,6.33
2018-09-19T19:17:06.451Z,8.73
2018-09-19T19:19:35.049Z,7.63
2018-09-19T19:22:03.560Z,8.03
2018-09-19T19:24:32.816Z,6.93
2018-09-19T19:27:01.341Z,8.50
2018-09-19T19:29:29.910Z,7.80
2018-09-19T19:31:58.445Z,7.20
2018-09-19T19:34:26.920Z,10.07
2018-09-19T19:36:55.366Z,7.93
2018-09-19T19:39:23.954Z,7.87
2018-09-19T19:41:52.458Z,8.03
2018-09-19T19:44:21.051Z,8.30
2018-09-19T19:46:49.604Z,6.80
2018-09-19T19:49:18.078Z,11.90
2018-09-19T19:51:46.582Z,6.83
2018-09-19T19:54:16.066Z,7.60
2018-09-19T19:56:44.606Z,7.83
2018-09-19T19:59:13.202Z,8.43
2018-09-19T20:01:41.765Z,8.70
2018-09-19T20:04:10.325Z,6.97
2018-09-19T20:06:38.786Z,8.70
2018-09-19T20:09:08.461Z,8.70
2018-09-19T20:11:38.617Z,7.17
2018-09-19T20:14:07.374Z,8.40
2018-09-19T20:16:35.901Z,8.07
2018-09-19T20:19:04.409Z,7.20
2018-09-19T20:21:32.985Z,8.07
2018-09-19T20:24:02.469Z,8.40
2018-09-19T20:26:31.993Z,9.40
2018-09-19T20:29:00.550Z,11.83
2018-09-19T20:31:29.055Z,8.57
2018-09-19T20:33:57.539Z,9.20
2018-09-19T20:36:26.206Z,8.27
2018-09-19T20:38:54.667Z,9.40
2018-09-19T20:41:23.196Z,7.70
2018-09-19T20:43:52.661Z,7.93
2018-09-19T20:46:21.336Z,9.03
2018-09-19T20:48:50.007Z,10.50
2018-09-19T20:51:18.730Z,9.30
2018-09-19T20:53:48.431Z,7.87
2018-09-19T20:56:17.565Z,7.63
2018-09-19T20:58:46.149Z,8.23
2018-09-19T21:01:15.654Z,8.33
2018-09-19T21:03:44.218Z,7.50
2018-09-19T21:06:12.713Z,8.13
2018-09-19T21:08:41.424Z,8.33
2018-09-19T21:18:12.697Z,8.47
2018-09-19T21:20:41.137Z,7.43
2018-09-19T21:23:09.647Z,8.90
2018-09-19T21:25:38.153Z,9.70
2018-09-19T21:28:06.793Z,7.80
2018-09-19T21:30:36.329Z,7.30
2018-09-19T21:33:04.826Z,6.90
2018-09-19T21:35:34.313Z,6.43
2018-09-19T21:38:02.865Z,7.67
2018-09-19T21:40:31.389Z,7.27
2018-09-19T21:42:59.938Z,6.97
2018-09-19T21:45:28.449Z,7.03
2018-09-19T21:47:56.889Z,6.57
2018-09-19T21:50:25.397Z,6.43
2018-09-19T21:52:53.849Z,6.70
2018-09-19T21:55:22.381Z,8.07
2018-09-19T21:57:50.879Z,7.37
2018-09-19T22:00:19.419Z,7.37
2018-09-19T22:02:47.897Z,6.83
2018-09-19T22:05:16.434Z,7.10
2018-09-19T22:07:44.953Z,6.83
2018-09-19T22:10:13.446Z,7.17
2018-09-19T22:12:41.945Z,7.63
2018-09-19T22:15:10.426Z,7.93
2018-09-19T22:17:38.918Z,8.57
2018-09-19T22:20:07.510Z,8.60
2018-09-19T22:22:36.181Z,7.50
2018-09-19T22:25:04.818Z,7.10
2018-09-19T22:27:33.370Z,7.60
2018-09-19T22:30:01.945Z,8.00
2018-09-19T22:32:30.469Z,7.90
2018-09-19T22:34:58.954Z,8.07
2018-09-19T22:37:27.482Z,7.80
2018-09-19T22:39:55.938Z,8.03
2018-09-19T22:42:24.465Z,7.07
2018-09-19T22:44:52.981Z,8.13
2018-09-19T22:47:21.472Z,8.77
2018-09-19T22:49:49.985Z,11.60
2018-09-19T22:52:19.462Z,8.33
2018-09-19T22:54:49.001Z,8.23
2018-09-19T22:57:17.437Z,8.13
2018-09-19T22:59:45.913Z,7.90
2018-09-19T23:02:14.444Z,8.33
2018-09-19T23:04:42.882Z,9.00
2018-09-19T23:07:11.394Z,7.90
2018-09-19T23:09:39.903Z,10.40
2018-09-19T23:12:08.446Z,8.33
2018-09-19T23:14:36.953Z,8.87
2018-09-19T23:17:05.702Z,7.53
2018-09-19T23:19:34.202Z,7.03
2018-09-19T23:22:02.805Z,8.07
2018-09-19T23:24:31.341Z,7.33
2018-09-19T23:26:59.873Z,7.90
2018-09-19T23:29:28.421Z,7.33
2018-09-19T23:31:56.949Z,8.00
2018-09-19T23:34:25.476Z,7.90
2018-09-19T23:36:53.999Z,7.93
2018-09-19T23:39:22.449Z,9.73
2018-09-19T23:41:51.073Z,9.17
2018-09-19T23:44:19.493Z,9.30
2018-09-19T23:46:48.009Z,8.50
2018-09-19T23:49:16.501Z,8.87
2018-09-19T23:51:44.945Z,8.00
2018-09-19T23:54:13.594Z,8.10
2018-09-19T23:56:42.197Z,19.23
2018-09-19T23:59:10.709Z,9.93
